Time;durP1;ratioP1;P1;durP2;ratioP2;P2;SDS_P1;SDS_P2;PMS_P1;PMS_P2;Temp;Humidity;BMP_temperature;BMP_pressure;BME280_temperature;BME280_humidity;BME280_pressure;Samples;Min_cycle;Max_cycle;Signal;HPM_P1;HPM_P2
2023/06/14 00:01:49;;;;;;;4.47;2.58;;;;;;;;;;4398683;32;71037;-57
2023/06/14 00:04:38;;;;;;;4.43;1.83;;;;;;;;;;4399420;32;66326;-57
2023/06/14 00:07:35;;;;;;;3.10;2.17;;;;;;;;;;4400618;32;67933;-57
2023/06/14 00:10:22;;;;;;;5.10;1.98;;;;;;;;;;4377891;32;59179;-57
2023/06/14 00:13:10;;;;;;;5.18;2.42;;;;;;;;;;4387861;32;70509;-57
2023/06/14 00:15:57;;;;;;;3.45;2.20;;;;;;;;;;4398341;32;69259;-56
2023/06/14 00:18:43;;;;;;;5.85;1.92;;;;;;;;;;4388006;32;67964;-57
2023/06/14 00:21:31;;;;;;;2.85;2.03;;;;;;;;;;4398855;32;59179;-56
2023/06/14 00:24:17;;;;;;;5.30;2.58;;;;;;;;;;4387729;32;69546;-57
2023/06/14 00:27:05;;;;;;;3.05;2.15;;;;;;;;;;4387932;32;69584;-61
2023/06/14 00:29:51;;;;;;;2.97;1.90;;;;;;;;;;4387748;32;66867;-57
2023/06/14 00:32:42;;;;;;;5.50;2.03;;;;;;;;;;4398178;32;71810;-56
2023/06/14 00:35:29;;;;;;;4.47;2.28;;;;;;;;;;4387116;32;65705;-57
2023/06/14 00:38:17;;;;;;;3.90;1.92;;;;;;;;;;4387770;32;68250;-58
2023/06/14 00:41:03;;;;;;;4.28;2.28;;;;;;;;;;4387745;32;59690;-57
2023/06/14 00:43:51;;;;;;;3.22;1.90;;;;;;;;;;4398215;32;71955;-57
2023/06/14 00:46:37;;;;;;;4.55;2.45;;;;;;;;;;4398385;32;66620;-56
2023/06/14 00:49:24;;;;;;;3.87;2.20;;;;;;;;;;4387475;32;67600;-57
2023/06/14 00:52:12;;;;;;;3.05;2.05;;;;;;;;;;4376274;32;59742;-56
2023/06/14 00:54:59;;;;;;;4.30;2.42;;;;;;;;;;4397868;32;70536;-56
2023/06/14 00:57:49;;;;;;;5.78;2.92;;;;;;;;;;4379433;32;69483;-57
2023/06/14 01:00:36;;;;;;;4.80;2.28;;;;;;;;;;4387603;32;67564;-57
2023/06/14 01:03:23;;;;;;;;;;;;;;;;;;4377035;32;71677;-57
2023/06/14 01:06:29;;;;;;;3.28;2.42;;;;;;;;;;4399751;32;66276;-57
2023/06/14 01:09:19;;;;;;;6.72;2.50;;;;;;;;;;4397804;32;68621;-58
2023/06/14 01:12:33;;;;;;;5.00;2.40;;;;;;;;;;4399124;32;66772;-56
2023/06/14 01:15:21;;;;;;;3.83;2.62;;;;;;;;;;4399100;32;71298;-56
2023/06/14 01:18:16;;;;;;;4.68;2.35;;;;;;;;;;4397813;32;66337;-56
2023/06/14 01:21:05;;;;;;;7.15;2.50;;;;;;;;;;4398099;32;68076;-57
2023/06/14 01:23:52;;;;;;;4.55;2.47;;;;;;;;;;4398306;32;60463;-57
2023/06/14 01:26:45;;;;;;;5.10;2.45;;;;;;;;;;4397757;32;70763;-57
2023/06/14 01:29:32;;;;;;;5.97;3.33;;;;;;;;;;4398012;32;69577;-56
2023/06/14 01:32:19;;;;;;;6.20;2.90;;;;;;;;;;4387385;32;67682;-57
2023/06/14 01:35:06;;;;;;;7.85;2.60;;;;;;;;;;4398309;32;60326;-57
2023/06/14 01:37:54;;;;;;;5.35;2.95;;;;;;;;;;4387217;32;69595;-56
2023/06/14 01:40:42;;;;;;;5.65;2.67;;;;;;;;;;4387110;32;69458;-57
2023/06/14 01:43:30;;;;;;;10.35;2.75;;;;;;;;;;4386762;32;67683;-57
2023/06/14 01:46:17;;;;;;;5.32;2.60;;;;;;;;;;4397532;32;72025;-57
2023/06/14 01:49:04;;;;;;;7.57;2.80;;;;;;;;;;4386822;32;65427;-56
2023/06/14 01:51:51;;;;;;;10.80;2.90;;;;;;;;;;4376187;32;67775;-57
2023/06/14 01:54:41;;;;;;;5.18;2.97;;;;;;;;;;4400096;32;59113;-57
2023/06/14 01:57:29;;;;;;;7.45;2.78;;;;;;;;;;4386974;32;70432;-57
2023/06/14 02:00:18;;;;;;;5.35;2.50;;;;;;;;;;4386623;32;65525;-57
2023/06/14 02:03:04;;;;;;;8.90;2.90;;;;;;;;;;4397271;32;66960;-57
2023/06/14 02:05:51;;;;;;;10.75;2.95;;;;;;;;;;4397286;32;59134;-57
2023/06/14 02:08:37;;;;;;;6.68;2.72;;;;;;;;;;4386414;32;70198;-57
2023/06/14 02:11:25;;;;;;;9.25;3.50;;;;;;;;;;4398688;32;68278;-57
2023/06/14 02:14:12;;;;;;;7.30;2.92;;;;;;;;;;4400918;32;66692;-57
2023/06/14 02:20:44;;;;;;;6.68;2.78;;;;;;;;;;4397522;32;67224;-57
2023/06/14 02:23:53;;;;;;;4.28;2.80;;;;;;;;;;4389708;32;70063;-57
2023/06/14 02:26:43;;;;;;;4.60;2.53;;;;;;;;;;4390410;32;68110;-57
2023/06/14 02:29:33;;;;;;;4.35;2.62;;;;;;;;;;4400024;32;71590;-56
2023/06/14 02:32:23;;;;;;;8.77;2.58;;;;;;;;;;4387334;32;66212;-56
2023/06/14 02:35:32;;;;;;;4.82;2.35;;;;;;;;;;4388942;32;68681;-57
2023/06/14 02:38:18;;;;;;;4.47;2.50;;;;;;;;;;4397124;32;58917;-57
2023/06/14 02:41:42;;;;;;;5.30;2.28;;;;;;;;;;4375532;32;69482;-57
2023/06/14 02:44:30;;;;;;;5.80;2.97;;;;;;;;;;4398022;32;68593;-58
2023/06/14 02:47:41;;;;;;;5.90;2.37;;;;;;;;;;4389091;32;68417;-56
2023/06/14 02:50:29;;;;;;;;;;;;;;;;;;4386682;32;58882;-57
2023/06/14 02:53:38;;;;;;;8.60;3.03;;;;;;;;;;4388897;32;70780;-56
2023/06/14 02:56:47;;;;;;;4.40;2.70;;;;;;;;;;4387130;32;69231;-56
2023/06/14 02:59:35;;;;;;;5.30;2.72;;;;;;;;;;4396601;32;67811;-57
2023/06/14 03:02:22;;;;;;;7.50;3.00;;;;;;;;;;4375353;32;70840;-57
2023/06/14 03:05:12;;;;;;;6.15;2.78;;;;;;;;;;4386592;32;66350;-56
2023/06/14 03:08:09;;;;;;;6.50;3.00;;;;;;;;;;4377435;32;67675;-57
2023/06/14 03:15:29;;;;;;;6.03;2.90;;;;;;;;;;4396469;32;70160;-57
2023/06/14 03:18:35;;;;;;;4.72;2.62;;;;;;;;;;4399561;32;66104;-57
2023/06/14 03:21:29;;;;;;;3.95;2.58;;;;;;;;;;4388606;32;66686;-58
2023/06/14 03:24:36;;;;;;;5.15;2.95;;;;;;;;;;4399599;32;59104;-57
2023/06/14 03:36:03;;;;;;;6.70;3.12;;;;;;;;;;4382552;32;67635;-58
2023/06/14 03:38:52;;;;;;;7.22;3.22;;;;;;;;;;4361547;32;71843;-57
2023/06/14 03:41:39;;;;;;;11.30;3.22;;;;;;;;;;4361465;32;66458;-57
2023/06/14 03:44:48;;;;;;;11.05;3.30;;;;;;;;;;4359203;32;66646;-57
2023/06/14 03:48:09;;;;;;;11.32;3.92;;;;;;;;;;4372668;32;67310;-56
2023/06/14 03:51:18;;;;;;;7.55;3.80;;;;;;;;;;4366066;32;72443;-58
2023/06/14 03:54:44;;;;;;;7.53;4.10;;;;;;;;;;4361620;32;66780;-56
2023/06/14 04:02:18;;;;;;;9.73;3.72;;;;;;;;;;4370881;32;60372;-58
2023/06/14 04:09:11;;;;;;;10.32;3.70;;;;;;;;;;4398869;32;70035;-56
2023/06/14 04:12:06;;;;;;;8.10;3.72;;;;;;;;;;4398828;32;67410;-57
2023/06/14 04:14:52;;;;;;;11.68;4.22;;;;;;;;;;4388844;32;71729;-57
2023/06/14 04:17:40;;;;;;;8.40;3.42;;;;;;;;;;4399497;32;69758;-57
2023/06/14 04:21:28;;;;;;;5.82;3.10;;;;;;;;;;4400338;32;70212;-57
2023/06/14 04:33:06;;;;;;;6.03;2.90;;;;;;;;;;4399869;32;66140;-57
2023/06/14 04:44:16;;;;;;;5.87;2.90;;;;;;;;;;4399577;32;71368;-57
2023/06/14 04:47:57;;;;;;;5.10;3.12;;;;;;;;;;4398686;32;70243;-57
2023/06/14 05:05:21;;;;;;;5.00;3.10;;;;;;;;;;4368867;32;69186;-57
2023/06/14 05:09:04;;;;;;;4.55;2.70;;;;;;;;;;4336421;32;67715;-56
2023/06/14 05:17:12;;;;;;;4.80;2.58;;;;;;;;;;4321347;32;66454;-57
2023/06/14 05:20:30;;;;;;;5.85;2.92;;;;;;;;;;4311918;32;68874;-57
2023/06/14 05:23:21;;;;;;;6.43;3.60;;;;;;;;;;4321388;32;67949;-56
2023/06/14 05:26:48;;;;;;;5.35;3.00;;;;;;;;;;4304614;32;72466;-57
2023/06/14 05:43:13;;;;;;;8.65;3.08;;;;;;;;;;4365702;32;71384;-57
2023/06/14 05:46:00;;;;;;;6.47;2.95;;;;;;;;;;4342432;32;68197;-57
2023/06/14 05:53:56;;;;;;;6.28;3.10;;;;;;;;;;4344503;32;71289;-57
2023/06/14 06:10:16;;;;;;;6.85;3.40;;;;;;;;;;4335584;32;70891;-56
2023/06/14 06:16:35;;;;;;;7.43;3.37;;;;;;;;;;4320443;32;68480;-55
2023/06/14 06:29:06;;;;;;;9.05;4.57;;;;;;;;;;4350395;32;70045;-56
2023/06/14 06:32:11;;;;;;;6.60;4.12;;;;;;;;;;4348037;32;68898;-57
2023/06/14 06:35:01;;;;;;;6.32;3.40;;;;;;;;;;4350498;32;59057;-59
2023/06/14 06:38:09;;;;;;;8.25;3.75;;;;;;;;;;4364669;32;71303;-57
2023/06/14 06:41:34;;;;;;;8.10;3.83;;;;;;;;;;4354839;32;69463;-57
2023/06/14 06:44:44;;;;;;;8.65;4.65;;;;;;;;;;4365489;32;68630;-56
2023/06/14 06:47:51;;;;;;;11.80;5.87;;;;;;;;;;4366939;32;72098;-56
2023/06/14 06:51:02;;;;;;;10.48;4.47;;;;;;;;;;4388994;32;66596;-56
2023/06/14 06:53:52;;;;;;;;;;;;;;;;;;4386373;32;67789;-56
2023/06/14 06:56:39;;;;;;;10.93;4.75;;;;;;;;;;4379499;32;58715;-56
2023/06/14 07:00:10;;;;;;;13.10;4.90;;;;;;;;;;4379952;32;71274;-55
2023/06/14 07:03:16;;;;;;;;;;;;;;;;;;4380057;32;67283;-55
2023/06/14 07:06:03;;;;;;;10.25;4.72;;;;;;;;;;4386080;32;67325;-57
2023/06/14 07:08:50;;;;;;;8.68;4.35;;;;;;;;;;4398051;32;60542;-57
2023/06/14 07:15:01;;;;;;;7.72;3.85;;;;;;;;;;4397863;32;69172;-56
2023/06/14 07:17:50;;;;;;;4.97;3.33;;;;;;;;;;4386009;32;67498;-56
2023/06/14 07:20:40;;;;;;;7.25;3.28;;;;;;;;;;4385781;32;71708;-56
2023/06/14 07:27:35;;;;;;;5.45;2.80;;;;;;;;;;4397967;32;70216;-56
2023/06/14 07:34:35;;;;;;;7.20;3.47;;;;;;;;;;4397823;32;72181;-56
2023/06/14 07:37:47;;;;;;;5.43;3.95;;;;;;;;;;4386310;32;66585;-56
2023/06/14 07:40:33;;;;;;;5.03;3.28;;;;;;;;;;4391746;32;67933;-56
2023/06/14 07:43:20;;;;;;;7.35;4.10;;;;;;;;;;4376008;32;60361;-56
2023/06/14 07:46:10;;;;;;;5.28;2.95;;;;;;;;;;4387222;32;70470;-55
2023/06/14 07:49:17;;;;;;;7.68;3.30;;;;;;;;;;4378968;32;68355;-57
2023/06/14 07:52:04;;;;;;;5.03;2.80;;;;;;;;;;4366547;32;66035;-57
2023/06/14 07:55:32;;;;;;;4.62;2.90;;;;;;;;;;4392140;32;59882;-58
2023/06/14 07:58:41;;;;;;;5.37;2.65;;;;;;;;;;4386500;32;69611;-56
2023/06/14 08:02:06;;;;;;;5.93;2.28;;;;;;;;;;4374718;32;69255;-56
2023/06/14 08:04:52;;;;;;;4.32;2.62;;;;;;;;;;4399550;32;66659;-58
2023/06/14 08:07:40;;;;;;;5.50;2.55;;;;;;;;;;4387478;32;70203;-57
2023/06/14 08:13:58;;;;;;;5.78;2.62;;;;;;;;;;4399883;32;67103;-55
2023/06/14 08:16:49;;;;;;;5.90;2.72;;;;;;;;;;4388031;32;60871;-55
2023/06/14 08:19:42;;;;;;;4.68;2.58;;;;;;;;;;4387727;32;72024;-56
2023/06/14 08:27:10;;;;;;;5.05;3.17;;;;;;;;;;4402091;32;68733;-57
2023/06/14 08:30:17;;;;;;;4.68;2.53;;;;;;;;;;4401980;32;60193;-57
2023/06/14 08:33:22;;;;;;;4.50;2.28;;;;;;;;;;4401921;32;70746;-57
2023/06/14 08:36:28;;;;;;;4.50;2.65;;;;;;;;;;4367166;32;70216;-57
2023/06/14 08:39:52;;;;;;;6.28;2.70;;;;;;;;;;4400005;32;66424;-57
2023/06/14 08:42:39;;;;;;;4.68;2.90;;;;;;;;;;4398490;32;71849;-58
2023/06/14 08:49:38;;;;;;;3.92;2.62;;;;;;;;;;4398158;32;70044;-57
2023/06/14 08:52:40;;;;;;;5.70;2.78;;;;;;;;;;4377233;32;68023;-56
2023/06/14 08:55:47;;;;;;;5.87;2.92;;;;;;;;;;4375841;32;72687;-56
2023/06/14 08:58:57;;;;;;;4.03;2.60;;;;;;;;;;4397720;32;67362;-56
2023/06/14 09:02:14;;;;;;;5.62;2.75;;;;;;;;;;4398121;32;68278;-55
2023/06/14 09:05:13;;;;;;;4.30;2.65;;;;;;;;;;4388047;32;61082;-57
2023/06/14 09:08:22;;;;;;;4.57;3.00;;;;;;;;;;4398174;32;70215;-56
2023/06/14 09:11:13;;;;;;;4.78;2.83;;;;;;;;;;4397980;32;69504;-55
2023/06/14 09:14:25;;;;;;;2.92;2.40;;;;;;;;;;4398146;32;67325;-56
2023/06/14 09:17:15;;;;;;;4.43;2.75;;;;;;;;;;4386909;32;59125;-56
2023/06/14 09:20:08;;;;;;;5.32;2.65;;;;;;;;;;4397785;32;70348;-56
2023/06/14 09:22:56;;;;;;;4.65;2.67;;;;;;;;;;4397826;32;69496;-55
2023/06/14 09:25:47;;;;;;;4.62;3.05;;;;;;;;;;4386960;32;66669;-56
2023/06/14 09:28:34;;;;;;;7.28;3.10;;;;;;;;;;4399146;32;70639;-55
2023/06/14 09:31:23;;;;;;;7.32;3.10;;;;;;;;;;4398085;32;65427;-55
2023/06/14 09:34:11;;;;;;;5.60;3.10;;;;;;;;;;4399082;32;67978;-56
2023/06/14 09:37:38;;;;;;;4.60;2.45;;;;;;;;;;4398647;32;60990;-56
2023/06/14 09:40:44;;;;;;;3.90;2.50;;;;;;;;;;4387821;32;70358;-56
2023/06/14 09:43:33;;;;;;;4.72;2.45;;;;;;;;;;4398422;32;66770;-56
2023/06/14 09:46:21;;;;;;;3.87;2.80;;;;;;;;;;4387180;32;68186;-56
2023/06/14 09:49:10;;;;;;;5.37;2.40;;;;;;;;;;4386483;32;60626;-55
2023/06/14 09:52:02;;;;;;;8.80;3.08;;;;;;;;;;4387026;32;70856;-55
2023/06/14 09:54:52;;;;;;;6.35;2.90;;;;;;;;;;4386569;32;69300;-55
2023/06/14 09:58:01;;;;;;;5.10;2.60;;;;;;;;;;4389155;32;68457;-56
2023/06/14 10:04:47;;;;;;;4.20;2.30;;;;;;;;;;4396462;32;67423;-56
2023/06/14 10:07:47;;;;;;;3.85;2.42;;;;;;;;;;4386076;32;66878;-55
2023/06/14 10:10:35;;;;;;;3.80;2.53;;;;;;;;;;4398723;32;67971;-55
2023/06/14 10:13:25;;;;;;;2.97;2.28;;;;;;;;;;4375743;32;71902;-57
2023/06/14 10:20:49;;;;;;;4.28;2.55;;;;;;;;;;4350235;32;66956;-55
2023/06/14 10:23:41;;;;;;;4.43;2.47;;;;;;;;;;4350624;32;60166;-57
2023/06/14 10:26:28;;;;;;;3.47;2.28;;;;;;;;;;4339378;32;69778;-56
2023/06/14 10:29:56;;;;;;;3.58;2.40;;;;;;;;;;4329499;32;68521;-58
2023/06/14 10:33:35;;;;;;;3.22;2.17;;;;;;;;;;4350293;32;67319;-57
2023/06/14 10:37:25;;;;;;;5.43;2.53;;;;;;;;;;4342156;32;60787;-58
2023/06/14 10:40:30;;;;;;;10.75;3.10;;;;;;;;;;4328975;32;70617;-57
2023/06/14 10:43:54;;;;;;;3.60;2.28;;;;;;;;;;4337525;32;68423;-57
2023/06/14 10:46:56;;;;;;;3.75;2.42;;;;;;;;;;4337630;32;67782;-57
2023/06/14 10:50:08;;;;;;;4.05;2.60;;;;;;;;;;4359426;32;72685;-56
2023/06/14 10:52:54;;;;;;;6.18;2.90;;;;;;;;;;4384639;32;67405;-56
2023/06/14 10:56:06;;;;;;;6.37;2.90;;;;;;;;;;4384484;32;67164;-57
2023/06/14 11:06:37;;;;;;;4.75;3.08;;;;;;;;;;4394991;32;65424;-57
2023/06/14 11:13:53;;;;;;;6.97;2.92;;;;;;;;;;4386547;32;60996;-56
2023/06/14 11:16:40;;;;;;;6.95;2.35;;;;;;;;;;4383865;32;71315;-57
2023/06/14 11:23:17;;;;;;;7.75;3.00;;;;;;;;;;4395400;32;67572;-57
2023/06/14 11:26:04;;;;;;;7.50;3.33;;;;;;;;;;4396255;32;70539;-58
2023/06/14 11:29:11;;;;;;;3.92;2.15;;;;;;;;;;4385899;32;66399;-57
2023/06/14 11:32:13;;;;;;;3.70;2.28;;;;;;;;;;4360537;32;67939;-56
2023/06/14 11:35:00;;;;;;;5.45;2.53;;;;;;;;;;4369089;32;67605;-58
2023/06/14 11:37:47;;;;;;;2.85;2.25;;;;;;;;;;4359208;32;71673;-57
2023/06/14 11:40:34;;;;;;;3.62;2.00;;;;;;;;;;4382389;32;65400;-57
2023/06/14 11:43:40;;;;;;;4.82;2.62;;;;;;;;;;4361185;32;66992;-58
2023/06/14 11:46:27;;;;;;;4.65;2.37;;;;;;;;;;4371886;32;60189;-57
2023/06/14 11:49:14;;;;;;;8.35;2.78;;;;;;;;;;4350609;32;69653;-57
2023/06/14 11:52:01;;;;;;;5.15;2.75;;;;;;;;;;4361231;32;69539;-57
2023/06/14 11:54:49;;;;;;;7.75;2.80;;;;;;;;;;4360904;32;67942;-56
2023/06/14 11:57:36;;;;;;;8.73;3.08;;;;;;;;;;4361410;32;70903;-57
2023/06/14 12:00:27;;;;;;;5.68;3.37;;;;;;;;;;4371436;32;70610;-56
2023/06/14 12:03:14;;;;;;;6.95;3.10;;;;;;;;;;4377963;32;68228;-57
2023/06/14 12:06:03;;;;;;;;;;;;;;;;;;4398642;32;66902;-56
2023/06/14 12:08:53;;;;;;;6.60;3.20;;;;;;;;;;4398728;32;71283;-56
2023/06/14 12:11:40;;;;;;;6.80;3.90;;;;;;;;;;4398617;32;65052;-57
2023/06/14 12:14:31;;;;;;;7.00;3.95;;;;;;;;;;4388057;32;68019;-57
2023/06/14 12:17:18;;;;;;;7.68;4.15;;;;;;;;;;4387671;32;59962;-57
2023/06/14 12:20:16;;;;;;;8.23;3.55;;;;;;;;;;4387902;32;70676;-57
2023/06/14 12:23:04;;;;;;;9.00;3.70;;;;;;;;;;4398203;32;69487;-58
2023/06/14 12:25:52;;;;;;;8.75;3.37;;;;;;;;;;4387724;32;67900;-56
